createdAt,value
2022-11-08T00:00:24.266Z,5.30
2022-11-08T00:03:09.545Z,5.37
2022-11-08T00:06:13.540Z,4.77
2022-11-08T00:09:14.461Z,5.03
2022-11-08T00:12:15.832Z,5.70
2022-11-08T00:14:59.753Z,4.87
2022-11-08T00:17:43.557Z,5.30
2022-11-08T00:20:28.739Z,5.60
2022-11-08T00:23:12.500Z,5.90
2022-11-08T00:25:56.395Z,5.63
2022-11-08T00:28:40.302Z,5.50
2022-11-08T00:31:24.021Z,5.70
2022-11-08T00:34:07.683Z,5.50
2022-11-08T00:36:54.559Z,6.40
2022-11-08T00:39:38.484Z,6.27
2022-11-08T00:42:22.168Z,5.80
2022-11-08T00:45:07.045Z,5.60
2022-11-08T00:47:50.693Z,5.27
2022-11-08T00:50:34.489Z,5.27
2022-11-08T00:53:19.685Z,6.10
2022-11-08T00:56:05.961Z,5.77
2022-11-08T00:58:49.812Z,5.40
2022-11-08T01:01:34.045Z,6.07
2022-11-08T01:04:20.093Z,5.40
2022-11-08T01:07:04.552Z,5.73
2022-11-08T01:09:49.743Z,5.87
2022-11-08T01:12:33.706Z,5.10
2022-11-08T01:15:17.493Z,5.57
2022-11-08T01:18:01.295Z,6.43
2022-11-08T01:20:46.841Z,5.90
2022-11-08T01:23:30.951Z,5.47
2022-11-08T01:26:18.624Z,5.70
2022-11-08T01:29:02.286Z,5.00
2022-11-08T01:31:46.058Z,5.80
2022-11-08T01:34:29.841Z,5.47
2022-11-08T01:37:13.747Z,5.60
2022-11-08T01:39:57.487Z,5.67
2022-11-08T01:42:42.634Z,5.57
2022-11-08T01:46:17.813Z,5.60
2022-11-08T01:49:24.879Z,5.33
2022-11-08T01:52:14.708Z,5.00
2022-11-08T01:55:04.047Z,5.30
2022-11-08T01:57:54.481Z,6.43
2022-11-08T02:00:39.551Z,5.70
2022-11-08T02:03:24.056Z,6.43
2022-11-08T02:06:09.072Z,5.87
2022-11-08T02:08:52.833Z,5.70
2022-11-08T02:11:37.878Z,5.37
2022-11-08T02:14:23.093Z,5.63
2022-11-08T02:17:07.507Z,5.53
2022-11-08T02:19:52.123Z,4.77
2022-11-08T02:22:42.859Z,4.90
2022-11-08T02:25:28.115Z,5.40
2022-11-08T02:28:12.044Z,4.60
2022-11-08T02:30:55.802Z,5.87
2022-11-08T02:33:40.268Z,6.07
2022-11-08T02:36:25.621Z,5.13
2022-11-08T02:39:09.423Z,4.50
2022-11-08T02:41:54.566Z,5.33
2022-11-08T02:44:38.196Z,5.43
2022-11-08T02:47:21.943Z,5.33
2022-11-08T02:50:06.539Z,5.30
2022-11-08T02:52:50.298Z,4.80
2022-11-08T02:55:35.651Z,5.43
2022-11-08T02:58:21.189Z,5.30
2022-11-08T03:01:05.099Z,5.50
2022-11-08T03:03:48.960Z,5.67
2022-11-08T03:06:32.628Z,4.97
2022-11-08T03:09:16.330Z,5.90
2022-11-08T03:12:00.157Z,5.20
2022-11-08T03:14:45.303Z,5.00
2022-11-08T03:17:29.077Z,5.13
2022-11-08T03:20:13.140Z,5.93
2022-11-08T03:23:00.446Z,6.13
2022-11-08T03:25:44.177Z,4.70
2022-11-08T03:28:28.294Z,5.50
2022-11-08T03:31:13.497Z,5.20
2022-11-08T03:33:57.233Z,4.93
2022-11-08T03:36:40.905Z,5.33
2022-11-08T03:39:24.671Z,5.17
2022-11-08T03:42:08.768Z,5.57
2022-11-08T03:44:52.386Z,6.13
2022-11-08T03:47:40.159Z,5.77
2022-11-08T03:50:24.051Z,5.87
2022-11-08T03:53:07.763Z,6.10
2022-11-08T03:55:51.417Z,5.03
2022-11-08T03:58:35.981Z,5.60
2022-11-08T04:01:19.993Z,5.83
2022-11-08T04:04:05.525Z,6.03
2022-11-08T04:06:49.282Z,5.40
2022-11-08T04:09:33.049Z,5.57
2022-11-08T04:12:34.469Z,5.33
2022-11-08T04:15:22.812Z,6.20
2022-11-08T04:18:24.152Z,7.90
2022-11-08T04:21:22.917Z,5.97
2022-11-08T04:24:07.262Z,5.90
2022-11-08T04:26:51.025Z,5.77
2022-11-08T04:29:34.804Z,6.27
2022-11-08T04:32:18.530Z,5.97
2022-11-08T04:35:02.214Z,5.03
2022-11-08T04:37:47.847Z,5.50
2022-11-08T04:40:32.348Z,6.03
2022-11-08T04:43:16.155Z,5.40
2022-11-08T04:46:01.430Z,7.17
2022-11-08T04:48:45.814Z,5.80
2022-11-08T04:51:31.504Z,5.50
2022-11-08T04:54:16.916Z,6.03
2022-11-08T04:57:00.775Z,6.57
2022-11-08T04:59:44.694Z,6.10
2022-11-08T05:02:28.700Z,6.07
2022-11-08T05:05:12.811Z,6.30
2022-11-08T05:07:56.824Z,7.07
2022-11-08T05:10:42.495Z,6.77
2022-11-08T05:13:26.521Z,7.57
2022-11-08T05:16:13.464Z,6.43
2022-11-08T05:18:58.114Z,7.27
2022-11-08T05:21:59.696Z,7.60
2022-11-08T05:24:43.641Z,8.10
2022-11-08T05:27:29.540Z,8.07
2022-11-08T05:30:13.989Z,8.33
2022-11-08T05:32:57.774Z,8.60
2022-11-08T05:35:41.474Z,8.47
2022-11-08T05:38:25.203Z,8.70
2022-11-08T05:41:11.931Z,8.70
2022-11-08T05:43:57.186Z,8.30
2022-11-08T05:46:41.056Z,11.27
2022-11-08T05:49:25.104Z,11.50
2022-11-08T05:52:09.038Z,11.70
2022-11-08T05:54:53.501Z,10.67
2022-11-08T05:57:37.468Z,10.40
2022-11-08T06:00:23.305Z,12.87
2022-11-08T06:03:07.888Z,10.97
2022-11-08T06:05:52.258Z,9.70
2022-11-08T06:08:37.005Z,8.53
2022-11-08T06:11:22.814Z,9.30
2022-11-08T06:14:07.115Z,9.43
2022-11-08T06:16:52.728Z,11.13
2022-11-08T06:19:36.646Z,10.93
2022-11-08T06:22:20.871Z,11.27
2022-11-08T06:25:05.490Z,11.63
2022-11-08T06:27:49.697Z,10.83
2022-11-08T06:30:33.743Z,10.73
2022-11-08T06:33:20.753Z,8.60
2022-11-08T06:36:05.427Z,8.90
2022-11-08T06:38:49.484Z,9.63
2022-11-08T06:41:34.024Z,10.13
2022-11-08T06:44:17.770Z,10.37
2022-11-08T06:47:01.558Z,9.80
2022-11-08T06:49:46.878Z,9.83
2022-11-08T06:52:30.606Z,10.37
2022-11-08T06:55:14.276Z,13.80
2022-11-08T06:57:57.986Z,15.87
2022-11-08T07:00:41.857Z,15.43
2022-11-08T07:03:25.640Z,17.03
2022-11-08T07:06:10.947Z,16.77
2022-11-08T07:08:54.824Z,12.20
2022-11-08T07:11:38.660Z,11.60
2022-11-08T07:14:22.530Z,10.53
2022-11-08T07:17:06.225Z,12.10
2022-11-08T07:19:49.986Z,12.03
2022-11-08T07:22:35.133Z,14.03
2022-11-08T07:25:19.254Z,13.80
2022-11-08T07:28:05.387Z,12.53
2022-11-08T07:30:50.659Z,12.00
2022-11-08T07:33:34.914Z,11.00
2022-11-08T07:36:18.936Z,11.70
2022-11-08T07:39:06.759Z,11.83
2022-11-08T07:41:50.918Z,12.27
2022-11-08T07:44:34.767Z,11.60
2022-11-08T07:47:18.514Z,12.10
2022-11-08T07:50:02.583Z,11.50
2022-11-08T07:52:50.883Z,11.23
2022-11-08T07:55:37.348Z,12.93
2022-11-08T07:58:21.109Z,11.97
2022-11-08T08:01:07.108Z,13.53
2022-11-08T08:03:51.323Z,12.80
2022-11-08T08:06:35.538Z,12.17
2022-11-08T08:09:19.302Z,12.20
2022-11-08T08:12:05.121Z,11.77
2022-11-08T08:14:49.048Z,12.13
2022-11-08T08:17:33.467Z,10.53
2022-11-08T08:20:17.361Z,12.53
2022-11-08T08:23:01.675Z,13.20
2022-11-08T08:25:45.533Z,11.83
2022-11-08T08:28:30.774Z,13.27
2022-11-08T08:31:14.525Z,16.47
2022-11-08T08:33:58.282Z,16.80
2022-11-08T08:36:42.154Z,16.83
2022-11-08T08:39:25.938Z,17.67
2022-11-08T08:42:09.590Z,19.80
2022-11-08T08:44:54.998Z,18.33
2022-11-08T08:47:38.728Z,16.73
2022-11-08T08:50:22.916Z,16.23
2022-11-08T08:53:07.727Z,16.03
2022-11-08T08:55:52.905Z,18.50
2022-11-08T08:58:36.856Z,17.47
2022-11-08T09:01:38.689Z,14.47
2022-11-08T09:04:22.581Z,13.00
2022-11-08T09:07:07.649Z,15.90
2022-11-08T09:09:51.923Z,17.27
2022-11-08T09:12:36.526Z,11.77
2022-11-08T09:15:20.691Z,9.00
2022-11-08T09:18:06.035Z,9.40
2022-11-08T09:20:49.952Z,8.77
2022-11-08T09:23:33.662Z,7.73
2022-11-08T09:26:17.463Z,11.80
2022-11-08T09:29:01.890Z,8.97
2022-11-08T09:31:45.857Z,10.17
2022-11-08T09:34:31.037Z,5.67
2022-11-08T09:37:15.663Z,10.00
2022-11-08T09:39:59.770Z,7.87
2022-11-08T09:43:00.926Z,7.23
2022-11-08T09:45:47.561Z,5.47
2022-11-08T09:48:35.380Z,6.53
2022-11-08T09:51:24.442Z,5.87
2022-11-08T09:54:19.735Z,11.97
2022-11-08T09:57:05.424Z,11.80
2022-11-08T09:59:53.540Z,6.90
2022-11-08T10:02:38.141Z,18.87
2022-11-08T10:05:22.413Z,21.00
2022-11-08T10:08:14.396Z,14.63
2022-11-08T10:11:17.701Z,6.67
2022-11-08T10:14:23.642Z,18.17
2022-11-08T10:17:22.156Z,8.77
2022-11-08T10:20:16.948Z,5.17
2022-11-08T10:23:11.565Z,5.40
2022-11-08T10:26:01.227Z,4.30
2022-11-08T10:28:50.568Z,8.87
2022-11-08T10:31:38.854Z,5.00
2022-11-08T10:34:35.243Z,5.73
2022-11-08T10:37:19.690Z,5.30
2022-11-08T10:40:16.933Z,8.13
2022-11-08T10:43:09.495Z,11.87
2022-11-08T10:45:53.660Z,9.40
2022-11-08T10:48:40.293Z,8.93
2022-11-08T10:51:24.014Z,9.07
2022-11-08T10:54:08.613Z,8.50
2022-11-08T10:56:56.881Z,8.43
2022-11-08T10:59:42.920Z,8.03
2022-11-08T11:02:30.072Z,7.67
2022-11-08T11:05:23.037Z,7.88
2022-11-08T11:08:16.849Z,7.82
2022-11-08T11:11:23.834Z,7.53
2022-11-08T11:14:16.283Z,8.35
2022-11-08T11:17:16.709Z,8.07
2022-11-08T11:20:01.551Z,6.90
2022-11-08T11:22:47.851Z,7.93
2022-11-08T11:25:31.879Z,7.22
2022-11-08T11:28:16.110Z,7.90
2022-11-08T11:31:02.895Z,8.68
2022-11-08T11:33:48.097Z,8.00
2022-11-08T11:36:32.533Z,7.37
2022-11-08T11:39:24.018Z,7.43
2022-11-08T11:42:39.373Z,6.95
2022-11-08T11:45:21.412Z,7.40
2022-11-08T11:48:12.652Z,6.88
2022-11-08T11:50:58.376Z,6.97
2022-11-08T11:53:47.516Z,6.80
2022-11-08T11:56:46.801Z,6.80
2022-11-08T11:59:57.673Z,7.55
2022-11-08T12:03:14.504Z,6.72
2022-11-08T12:06:25.842Z,6.73
2022-11-08T12:09:33.972Z,6.43
2022-11-08T12:12:34.684Z,6.23
2022-11-08T12:15:26.956Z,6.85
2022-11-08T12:18:44.560Z,6.82
2022-11-08T12:21:38.193Z,6.47
2022-11-08T12:24:35.182Z,6.25
2022-11-08T12:27:33.046Z,6.20
2022-11-08T12:30:20.620Z,5.80
2022-11-08T12:33:20.882Z,5.78
2022-11-08T12:36:15.764Z,6.03
2022-11-08T12:39:08.842Z,6.05
2022-11-08T12:42:04.429Z,5.88
2022-11-08T12:45:16.903Z,6.50
2022-11-08T12:48:11.019Z,6.43
2022-11-08T12:51:01.908Z,5.65
2022-11-08T12:54:18.216Z,5.82
2022-11-08T12:57:10.128Z,6.00
2022-11-08T13:00:00.875Z,6.20
2022-11-08T13:02:53.338Z,6.00
2022-11-08T13:05:44.184Z,5.38
2022-11-08T13:08:32.989Z,6.27
2022-11-08T13:11:23.527Z,6.27
2022-11-08T13:14:15.493Z,5.80
2022-11-08T13:17:23.002Z,6.03
2022-11-08T13:20:09.017Z,6.00
2022-11-08T13:23:00.680Z,5.83
2022-11-08T13:25:45.201Z,6.10
2022-11-08T13:28:39.433Z,5.90
2022-11-08T13:31:40.669Z,5.67
2022-11-08T13:34:43.354Z,5.57
2022-11-08T13:37:44.108Z,5.70
2022-11-08T13:40:43.932Z,5.80
2022-11-08T13:43:29.924Z,5.97
2022-11-08T13:46:51.986Z,6.07
2022-11-08T13:49:35.735Z,7.27
2022-11-08T13:52:45.693Z,5.90
2022-11-08T13:55:49.632Z,6.70
2022-11-08T13:58:37.272Z,7.03
2022-11-08T14:02:00.738Z,6.53
2022-11-08T14:04:45.747Z,10.17
2022-11-08T14:07:35.592Z,10.50
2022-11-08T14:10:25.289Z,9.47
2022-11-08T14:13:20.682Z,7.90
2022-11-08T14:16:14.166Z,7.70
2022-11-08T14:19:18.708Z,6.63
2022-11-08T14:22:03.883Z,7.63
2022-11-08T14:24:48.079Z,6.33
2022-11-08T14:27:37.452Z,5.83
2022-11-08T14:30:24.483Z,5.80
2022-11-08T14:33:16.718Z,6.40
2022-11-08T14:36:04.429Z,6.23
2022-11-08T14:38:50.069Z,6.47
2022-11-08T14:41:35.420Z,6.50
2022-11-08T14:44:19.528Z,6.43
2022-11-08T14:47:03.336Z,7.10
2022-11-08T14:49:49.158Z,8.33
2022-11-08T14:52:34.631Z,9.13
2022-11-08T14:55:25.011Z,11.63
2022-11-08T14:58:14.949Z,10.63
2022-11-08T15:01:00.918Z,10.13
2022-11-08T15:03:48.901Z,8.13
2022-11-08T15:06:37.758Z,10.50
2022-11-08T15:09:26.560Z,14.90
2022-11-08T15:12:16.674Z,10.27
2022-11-08T15:15:02.726Z,14.93
2022-11-08T15:17:49.568Z,9.57
2022-11-08T15:20:33.737Z,10.53
2022-11-08T15:23:26.210Z,9.40
2022-11-08T15:26:22.632Z,9.20
2022-11-08T15:29:09.211Z,10.33
2022-11-08T15:32:00.973Z,16.17
2022-11-08T15:34:46.391Z,11.40
2022-11-08T15:37:33.521Z,10.17
2022-11-08T15:40:21.035Z,10.37
2022-11-08T15:43:06.218Z,11.33
2022-11-08T15:45:54.753Z,11.87
2022-11-08T15:48:38.471Z,13.37
2022-11-08T15:51:22.279Z,13.50
2022-11-08T15:54:06.349Z,13.07
2022-11-08T15:56:51.730Z,14.90
2022-11-08T15:59:37.633Z,10.77
2022-11-08T16:02:23.057Z,9.93
2022-11-08T16:05:16.045Z,9.73
2022-11-08T16:08:00.031Z,9.83
2022-11-08T16:10:46.227Z,10.00
2022-11-08T16:13:33.114Z,12.17
2022-11-08T16:16:19.246Z,14.50
2022-11-08T16:19:03.317Z,14.67
2022-11-08T16:21:47.900Z,14.07
2022-11-08T16:24:31.947Z,11.20
2022-11-08T16:27:16.127Z,11.50
2022-11-08T16:30:00.197Z,11.83
2022-11-08T16:32:45.986Z,10.50
2022-11-08T16:35:30.007Z,12.23
2022-11-08T16:38:14.112Z,12.93
2022-11-08T16:40:58.245Z,9.60
2022-11-08T16:43:42.294Z,13.33
2022-11-08T16:46:26.342Z,9.83
2022-11-08T16:49:21.131Z,9.40
2022-11-08T16:52:05.123Z,10.30
2022-11-08T16:54:49.132Z,7.77
2022-11-08T16:57:34.973Z,8.53
2022-11-08T17:00:21.302Z,8.37
2022-11-08T17:03:05.717Z,8.73
2022-11-08T17:05:51.274Z,9.37
2022-11-08T17:08:35.040Z,9.10
2022-11-08T17:11:21.181Z,8.30
2022-11-08T17:14:05.203Z,8.37
2022-11-08T17:16:52.804Z,10.87
2022-11-08T17:19:36.633Z,13.73
2022-11-08T17:22:21.876Z,14.10
2022-11-08T17:25:06.588Z,12.20
2022-11-08T17:27:51.544Z,10.43
2022-11-08T17:30:37.231Z,9.50
2022-11-08T17:33:21.597Z,10.37
2022-11-08T17:36:07.263Z,8.97
2022-11-08T17:38:52.527Z,9.50
2022-11-08T17:41:36.360Z,8.90
2022-11-08T17:44:20.326Z,10.03
2022-11-08T17:47:04.483Z,10.40
2022-11-08T17:49:48.313Z,10.07
2022-11-08T17:52:32.102Z,9.17
2022-11-08T17:55:17.626Z,10.40
2022-11-08T17:58:01.664Z,10.03
2022-11-08T18:00:45.880Z,9.57
2022-11-08T18:03:30.298Z,11.30
2022-11-08T18:06:16.567Z,9.80
2022-11-08T18:09:00.559Z,10.67
2022-11-08T18:11:47.969Z,10.53
2022-11-08T18:14:32.149Z,15.30
2022-11-08T18:17:16.003Z,11.73
2022-11-08T18:19:59.924Z,19.27
2022-11-08T18:22:43.699Z,10.50
2022-11-08T18:25:27.847Z,10.17
2022-11-08T18:28:13.009Z,10.63
2022-11-08T18:30:56.765Z,10.27
2022-11-08T18:33:41.520Z,10.30
2022-11-08T18:36:27.359Z,11.53
2022-11-08T18:39:14.074Z,14.43
2022-11-08T18:42:02.258Z,10.30
2022-11-08T18:44:47.512Z,11.23
2022-11-08T18:47:31.323Z,11.50
2022-11-08T18:50:15.283Z,13.63
2022-11-08T18:53:03.291Z,13.13
2022-11-08T18:55:48.492Z,22.00
2022-11-08T18:58:32.414Z,20.67
2022-11-08T19:01:19.747Z,19.13
2022-11-08T19:04:03.546Z,14.70
2022-11-08T19:06:54.143Z,13.30
2022-11-08T19:09:39.474Z,19.80
2022-11-08T19:12:23.207Z,20.20
2022-11-08T19:15:07.838Z,16.07
2022-11-08T19:17:53.997Z,13.57
2022-11-08T19:20:37.855Z,13.63
2022-11-08T19:23:22.531Z,13.63
2022-11-08T19:26:09.250Z,14.43
2022-11-08T19:28:55.455Z,14.40
2022-11-08T19:31:39.293Z,14.27
2022-11-08T19:34:24.606Z,12.97
2022-11-08T19:37:08.717Z,14.53
2022-11-08T19:39:52.559Z,15.10
2022-11-08T19:42:37.519Z,13.30
2022-11-08T19:45:21.340Z,11.53
2022-11-08T19:48:05.681Z,10.90
2022-11-08T19:50:51.849Z,12.03
2022-11-08T19:53:36.001Z,11.63
2022-11-08T19:56:29.156Z,10.47
2022-11-08T19:59:21.995Z,10.63
2022-11-08T20:02:05.895Z,9.80
2022-11-08T20:04:49.708Z,10.90
2022-11-08T20:07:34.962Z,8.80
2022-11-08T20:10:18.807Z,10.43
2022-11-08T20:13:02.885Z,11.10
2022-11-08T20:15:48.671Z,9.03
2022-11-08T20:18:33.101Z,9.00
2022-11-08T20:21:18.723Z,8.00
2022-11-08T20:24:03.991Z,9.17
2022-11-08T20:26:49.594Z,8.63
2022-11-08T20:29:33.443Z,9.67
2022-11-08T20:32:17.260Z,10.07
2022-11-08T20:35:04.251Z,9.03
2022-11-08T20:37:48.500Z,9.67
2022-11-08T20:40:33.693Z,9.93
2022-11-08T20:43:17.481Z,10.90
2022-11-08T20:46:03.859Z,9.77
2022-11-08T20:48:52.027Z,8.33
2022-11-08T20:51:36.448Z,11.00
2022-11-08T20:54:21.003Z,10.90
2022-11-08T20:57:06.322Z,10.57
2022-11-08T20:59:50.424Z,8.87
2022-11-08T21:02:34.205Z,9.10
2022-11-08T21:05:20.505Z,12.27
2022-11-08T21:08:57.429Z,9.57
2022-11-08T21:11:10.198Z,8.53
2022-11-08T21:13:55.427Z,9.37
2022-11-08T21:17:06.780Z,9.77
2022-11-08T21:19:44.044Z,9.90
2022-11-08T21:22:27.938Z,9.93
2022-11-08T21:25:11.765Z,10.37
2022-11-08T21:27:55.952Z,11.27
2022-11-08T21:30:44.974Z,9.80
2022-11-08T21:33:29.433Z,10.97
2022-11-08T21:36:13.983Z,10.10
2022-11-08T21:38:57.970Z,9.83
2022-11-08T21:41:41.824Z,10.43
2022-11-08T21:44:25.912Z,10.10
2022-11-08T21:47:11.214Z,11.40
2022-11-08T21:49:55.468Z,10.80
2022-11-08T21:52:39.209Z,10.70
2022-11-08T21:55:23.097Z,11.47
2022-11-08T21:58:06.970Z,12.60
2022-11-08T22:00:51.884Z,12.10
2022-11-08T22:03:37.451Z,12.37
2022-11-08T22:06:21.977Z,11.67
2022-11-08T22:09:05.921Z,11.13
2022-11-08T22:11:49.864Z,11.97
2022-11-08T22:14:33.719Z,11.70
2022-11-08T22:17:18.302Z,11.97
2022-11-08T22:20:03.546Z,12.30
2022-11-08T22:22:47.611Z,12.77
2022-11-08T22:25:31.431Z,12.07
2022-11-08T22:28:15.388Z,12.17
2022-11-08T22:30:59.367Z,11.57
2022-11-08T22:33:43.322Z,12.10
2022-11-08T22:36:28.729Z,12.20
2022-11-08T22:39:14.396Z,11.93
2022-11-08T22:41:58.216Z,12.50
2022-11-08T22:44:42.242Z,11.93
2022-11-08T22:47:26.463Z,12.53
2022-11-08T22:50:10.993Z,11.40
2022-11-08T22:52:56.595Z,12.23
2022-11-08T22:55:41.240Z,11.47
2022-11-08T22:58:25.230Z,12.73
2022-11-08T23:01:12.196Z,11.33
2022-11-08T23:03:56.401Z,12.47
2022-11-08T23:06:41.398Z,10.17
2022-11-08T23:09:27.215Z,10.70
2022-11-08T23:12:29.367Z,10.03
2022-11-08T23:15:30.773Z,10.87
2022-11-08T23:18:14.963Z,9.80
2022-11-08T23:21:16.466Z,9.33
2022-11-08T23:24:18.315Z,9.47
2022-11-08T23:27:22.536Z,9.77
2022-11-08T23:30:26.042Z,9.47
2022-11-08T23:33:10.085Z,10.03
2022-11-08T23:36:16.124Z,9.00
2022-11-08T23:39:00.325Z,9.60
2022-11-08T23:42:01.956Z,9.43
2022-11-08T23:44:47.434Z,9.47
2022-11-08T23:47:31.711Z,9.33
2022-11-08T23:50:15.862Z,9.17
2022-11-08T23:53:01.074Z,9.17
2022-11-08T23:55:45.353Z,9.10
2022-11-08T23:58:29.351Z,9.47
